Weather at Florida Airport

Public forecast

Using degrees Celsius for public forecast. Weather courtesy of forecast.io.

Closest aviation weather report (METAR) to Florida Airport

Closest report is Ignacio Agramonte International Airport, 20.4 nm (37.8 km) ESE. Retrieved 2021/06/15 12:50 UTC (29 minutes ago):

MUCM 151250Z 08007KT 040V110 9000 NSC 26/24 Q1018

Closest aviation forecast (TAF) to Florida Airport

Closest forecast is Ignacio Agramonte International Airport, 20.4 nm (37.8 km) ESE. Retrieved 2021/06/15 12:06 UTC (1 hour ago):

TAF MUCM 151100Z 1512/1612 VRB03KT 9000 SCT020 BKN060 TEMPO 1518/1524 VRB10KT 3400 TSRA SCT018CB BKN020